createdAt,value
2022-12-11T00:00:40.698Z,14.07
2022-12-11T00:03:11.380Z,14.27
2022-12-11T00:05:41.661Z,12.57
2022-12-11T00:08:08.236Z,11.48
2022-12-11T00:10:37.822Z,11.35
2022-12-11T00:13:04.737Z,9.48
2022-12-11T00:15:31.357Z,13.40
2022-12-11T00:17:57.789Z,13.38
2022-12-11T00:20:24.745Z,13.23
2022-12-11T00:22:51.246Z,14.23
2022-12-11T00:25:17.754Z,13.93
2022-12-11T00:27:46.592Z,12.70
2022-12-11T00:30:13.862Z,11.95
2022-12-11T00:32:40.487Z,13.45
2022-12-11T00:35:07.210Z,13.75
2022-12-11T00:37:33.697Z,13.75
2022-12-11T00:40:00.210Z,14.15
2022-12-11T00:42:26.615Z,12.82
2022-12-11T00:44:54.816Z,13.35
2022-12-11T00:47:21.256Z,12.40
2022-12-11T00:49:49.951Z,13.02
2022-12-11T00:52:17.849Z,11.50
2022-12-11T00:54:44.703Z,12.85
2022-12-11T00:57:11.180Z,13.52
2022-12-11T00:59:37.745Z,12.45
2022-12-11T01:02:04.186Z,10.40
2022-12-11T01:04:30.650Z,11.27
2022-12-11T01:06:57.123Z,13.00
2022-12-11T01:09:41.910Z,11.57
2022-12-11T01:12:08.331Z,12.80
2022-12-11T01:14:34.878Z,12.07
2022-12-11T01:17:01.349Z,11.95
2022-12-11T01:19:28.472Z,13.40
2022-12-11T01:21:55.058Z,12.55
2022-12-11T01:24:21.679Z,12.15
2022-12-11T01:26:48.134Z,13.38
2022-12-11T01:29:14.600Z,9.35
2022-12-11T01:31:41.266Z,12.05
2022-12-11T01:34:07.723Z,10.82
2022-12-11T01:36:34.179Z,9.65
2022-12-11T01:39:00.669Z,11.10
2022-12-11T01:41:27.097Z,12.48
2022-12-11T01:44:06.184Z,12.45
2022-12-11T01:46:36.914Z,13.77
2022-12-11T01:49:11.386Z,13.18
2022-12-11T01:51:42.191Z,11.13
2022-12-11T01:54:13.411Z,12.65
2022-12-11T01:56:43.520Z,13.10
2022-12-11T01:59:10.692Z,12.48
2022-12-11T02:01:42.936Z,12.43
2022-12-11T02:04:11.213Z,12.20
2022-12-11T02:06:46.874Z,12.07
2022-12-11T02:09:16.240Z,8.10
2022-12-11T02:12:07.622Z,10.05
2022-12-11T02:14:52.287Z,11.85
2022-12-11T02:17:29.426Z,11.07
2022-12-11T02:20:05.718Z,12.70
2022-12-11T02:22:59.509Z,11.20
2022-12-11T02:25:32.978Z,12.25
2022-12-11T02:28:25.588Z,9.77
2022-12-11T02:30:57.068Z,10.90
2022-12-11T02:33:32.746Z,12.52
2022-12-11T02:36:01.108Z,11.65
2022-12-11T02:38:32.890Z,12.35
2022-12-11T02:41:01.177Z,9.80
2022-12-11T02:43:29.285Z,11.07
2022-12-11T02:45:56.786Z,10.43
2022-12-11T02:48:24.432Z,9.20
2022-12-11T02:50:55.784Z,9.57
2022-12-11T02:53:26.294Z,8.40
2022-12-11T02:56:00.911Z,10.25
2022-12-11T02:58:32.907Z,9.45
2022-12-11T03:00:59.702Z,10.32
2022-12-11T03:03:29.295Z,10.20
2022-12-11T03:05:55.750Z,10.57
2022-12-11T03:08:22.269Z,10.10
2022-12-11T03:10:48.761Z,9.73
2022-12-11T03:13:20.248Z,9.60
2022-12-11T03:15:58.648Z,10.57
2022-12-11T03:18:39.549Z,10.98
2022-12-11T03:21:14.481Z,11.23
2022-12-11T03:24:14.968Z,10.60
2022-12-11T03:26:55.971Z,10.68
2022-12-11T03:29:51.458Z,10.60
2022-12-11T03:32:23.143Z,10.77
2022-12-11T03:35:08.115Z,10.48
2022-12-11T03:37:37.436Z,10.82
2022-12-11T03:40:09.143Z,12.55
2022-12-11T03:42:37.422Z,11.50
2022-12-11T03:45:05.076Z,13.50
2022-12-11T03:47:33.075Z,13.48
2022-12-11T03:50:00.028Z,12.55
2022-12-11T03:52:29.051Z,12.88
2022-12-11T03:55:00.199Z,13.70
2022-12-11T03:57:31.783Z,12.85
2022-12-11T03:59:58.407Z,12.57
2022-12-11T04:02:24.831Z,13.35
2022-12-11T04:04:51.286Z,13.90
2022-12-11T04:07:17.729Z,15.30
2022-12-11T04:09:44.177Z,14.57
2022-12-11T04:12:10.592Z,14.57
2022-12-11T04:14:55.793Z,19.63
2022-12-11T04:17:48.124Z,15.50
2022-12-11T04:20:33.405Z,14.20
2022-12-11T04:23:18.742Z,13.45
2022-12-11T04:25:45.283Z,10.82
2022-12-11T04:28:11.808Z,8.77
2022-12-11T04:30:38.332Z,9.60
2022-12-11T04:33:04.960Z,11.07
2022-12-11T04:35:31.512Z,9.65
2022-12-11T04:37:58.571Z,11.27
2022-12-11T04:40:25.186Z,14.27
2022-12-11T04:42:51.711Z,11.32
2022-12-11T04:45:18.458Z,10.88
2022-12-11T04:47:45.006Z,11.65
2022-12-11T04:50:14.226Z,11.13
2022-12-11T04:52:41.328Z,12.23
2022-12-11T04:55:09.133Z,12.68
2022-12-11T04:57:35.817Z,10.95
2022-12-11T05:00:04.710Z,10.30
2022-12-11T05:02:34.745Z,11.65
2022-12-11T05:05:01.361Z,11.70
2022-12-11T05:07:27.784Z,7.88
2022-12-11T05:09:54.255Z,9.25
2022-12-11T05:12:20.682Z,10.05
2022-12-11T05:14:47.268Z,8.38
2022-12-11T05:17:13.701Z,9.00
2022-12-11T05:19:40.176Z,8.63
2022-12-11T05:22:06.629Z,10.05
2022-12-11T05:24:33.093Z,11.20
2022-12-11T05:26:59.576Z,9.20
2022-12-11T05:29:26.053Z,10.27
2022-12-11T05:31:52.495Z,9.00
2022-12-11T05:34:18.958Z,10.02
2022-12-11T05:36:45.452Z,10.30
2022-12-11T05:39:12.226Z,11.15
2022-12-11T05:41:38.824Z,9.23
2022-12-11T05:44:05.681Z,9.52
2022-12-11T05:46:32.358Z,9.32
2022-12-11T05:49:00.994Z,9.25
2022-12-11T05:51:28.763Z,9.95
2022-12-11T05:53:56.845Z,8.82
2022-12-11T05:56:26.904Z,9.05
2022-12-11T05:58:54.322Z,9.45
2022-12-11T06:01:30.788Z,8.02
2022-12-11T06:03:57.962Z,8.02
2022-12-11T06:06:25.487Z,8.40
2022-12-11T06:08:53.291Z,10.18
2022-12-11T06:11:23.936Z,8.20
2022-12-11T06:13:52.199Z,8.30
2022-12-11T06:16:19.334Z,8.02
2022-12-11T06:18:46.160Z,8.10
2022-12-11T06:21:21.422Z,7.32
2022-12-11T06:23:51.339Z,9.45
2022-12-11T06:26:19.016Z,6.93
2022-12-11T06:28:46.505Z,6.78
2022-12-11T06:31:13.528Z,8.15
2022-12-11T06:33:43.054Z,8.20
2022-12-11T06:36:13.257Z,8.40
2022-12-11T06:38:39.883Z,8.88
2022-12-11T06:41:08.031Z,7.38
2022-12-11T06:43:36.321Z,7.80
2022-12-11T06:46:07.476Z,5.70
2022-12-11T06:48:34.489Z,5.15
2022-12-11T06:51:06.725Z,6.00
2022-12-11T06:53:33.590Z,6.75
2022-12-11T06:56:08.683Z,5.55
2022-12-11T06:58:36.440Z,6.38
2022-12-11T07:01:04.447Z,5.78
2022-12-11T07:03:31.055Z,6.57
2022-12-11T07:06:02.264Z,5.60
2022-12-11T07:08:29.716Z,6.10
2022-12-11T07:11:03.384Z,6.75
2022-12-11T07:13:29.849Z,7.43
2022-12-11T07:15:59.295Z,8.18
2022-12-11T07:18:26.419Z,8.98
2022-12-11T07:20:52.874Z,8.90
2022-12-11T07:23:19.491Z,7.38
2022-12-11T07:25:46.320Z,7.03
2022-12-11T07:28:16.627Z,7.22
2022-12-11T07:30:43.377Z,7.95
2022-12-11T07:33:09.812Z,7.40
2022-12-11T07:35:36.709Z,7.75
2022-12-11T07:38:03.441Z,8.63
2022-12-11T07:40:29.921Z,5.93
2022-12-11T07:42:56.346Z,7.68
2022-12-11T07:45:22.871Z,7.05
2022-12-11T07:47:49.405Z,5.75
2022-12-11T07:50:15.964Z,7.25
2022-12-11T07:52:42.495Z,7.97
2022-12-11T07:55:09.950Z,8.43
2022-12-11T07:57:37.152Z,8.43
2022-12-11T08:00:04.862Z,6.90
2022-12-11T08:02:38.848Z,7.55
2022-12-11T08:05:05.795Z,7.85
2022-12-11T08:07:34.875Z,7.57
2022-12-11T08:10:01.980Z,6.97
2022-12-11T08:12:28.443Z,5.28
2022-12-11T08:14:54.903Z,7.93
2022-12-11T08:17:25.876Z,7.18
2022-12-11T08:19:55.488Z,8.35
2022-12-11T08:22:21.924Z,7.25
2022-12-11T08:24:48.371Z,6.82
2022-12-11T08:27:14.848Z,7.15
2022-12-11T08:29:41.294Z,7.25
2022-12-11T08:32:12.322Z,7.03
2022-12-11T08:34:39.207Z,6.57
2022-12-11T08:37:05.717Z,7.18
2022-12-11T08:39:32.157Z,6.70
2022-12-11T08:41:58.635Z,6.53
2022-12-11T08:44:26.735Z,6.65
2022-12-11T08:46:53.208Z,6.85
2022-12-11T08:49:19.658Z,7.00
2022-12-11T08:51:46.081Z,9.43
2022-12-11T08:54:12.585Z,7.97
2022-12-11T08:56:39.142Z,7.60
2022-12-11T08:59:06.214Z,7.65
2022-12-11T09:01:32.882Z,6.60
2022-12-11T09:03:59.334Z,6.85
2022-12-11T09:06:27.918Z,7.28
2022-12-11T09:08:55.985Z,7.00
2022-12-11T09:11:28.973Z,7.05
2022-12-11T09:13:55.542Z,6.68
2022-12-11T09:16:25.144Z,7.28
2022-12-11T09:18:53.834Z,7.20
2022-12-11T09:21:23.292Z,9.15
2022-12-11T09:23:53.469Z,6.97
2022-12-11T09:26:20.366Z,8.07
2022-12-11T09:28:47.448Z,7.40
2022-12-11T09:31:17.631Z,6.78
2022-12-11T09:33:44.757Z,6.93
2022-12-11T09:36:12.429Z,5.57
2022-12-11T09:38:39.359Z,7.28
2022-12-11T09:41:20.766Z,6.10
2022-12-11T09:43:59.028Z,15.32
2022-12-11T09:46:30.557Z,9.70
2022-12-11T09:49:02.859Z,7.63
2022-12-11T09:51:42.044Z,6.32
2022-12-11T09:54:13.232Z,9.02
2022-12-11T09:56:45.640Z,8.63
2022-12-11T09:59:23.506Z,7.50
2022-12-11T10:01:54.078Z,5.88
2022-12-11T10:04:55.759Z,7.55
2022-12-11T10:07:42.097Z,7.68
2022-12-11T10:10:29.728Z,6.28
2022-12-11T10:13:16.588Z,8.25
2022-12-11T10:16:11.618Z,7.38
2022-12-11T10:18:39.188Z,7.63
2022-12-11T10:21:06.096Z,7.53
2022-12-11T10:23:40.367Z,6.97
2022-12-11T10:26:28.412Z,8.30
2022-12-11T10:28:59.924Z,7.68
2022-12-11T10:31:48.966Z,7.22
2022-12-11T10:34:28.916Z,7.65
2022-12-11T10:37:00.254Z,6.13
2022-12-11T10:39:27.437Z,7.68
2022-12-11T10:41:55.884Z,6.55
2022-12-11T10:44:30.554Z,7.50
2022-12-11T10:47:12.524Z,6.95
2022-12-11T10:49:43.364Z,6.88
2022-12-11T10:52:20.563Z,7.13
2022-12-11T10:54:54.701Z,6.35
2022-12-11T10:57:28.401Z,8.18
2022-12-11T10:59:55.427Z,6.45
2022-12-11T11:02:24.951Z,5.40
2022-12-11T11:04:53.252Z,6.50
2022-12-11T11:07:23.629Z,6.13
2022-12-11T11:09:51.792Z,7.45
2022-12-11T11:12:26.335Z,7.25
2022-12-11T11:15:07.778Z,6.55
2022-12-11T11:17:52.968Z,5.82
2022-12-11T11:20:28.092Z,6.30
2022-12-11T11:23:00.418Z,7.05
2022-12-11T11:25:30.098Z,6.70
2022-12-11T11:28:02.371Z,6.72
2022-12-11T11:30:31.769Z,5.95
2022-12-11T11:33:03.345Z,6.40
2022-12-11T11:35:31.699Z,6.75
2022-12-11T11:38:04.076Z,8.50
2022-12-11T11:40:41.367Z,8.02
2022-12-11T11:43:19.299Z,6.28
2022-12-11T11:45:56.523Z,5.47
2022-12-11T11:48:37.312Z,6.60
2022-12-11T11:51:14.895Z,7.65
2022-12-11T11:53:43.608Z,8.25
2022-12-11T11:56:21.953Z,7.72
2022-12-11T11:59:21.450Z,8.38
2022-12-11T12:01:47.922Z,8.63
2022-12-11T12:04:14.768Z,7.32
2022-12-11T12:06:53.467Z,8.30
2022-12-11T12:09:57.846Z,7.32
2022-12-11T12:12:53.984Z,7.00
2022-12-11T12:15:33.616Z,7.65
2022-12-11T12:18:15.190Z,8.18
2022-12-11T12:21:05.792Z,7.60
2022-12-11T12:23:52.583Z,10.15
2022-12-11T12:26:38.892Z,7.80
2022-12-11T12:30:04.161Z,6.28
2022-12-11T12:32:45.820Z,9.23
2022-12-11T12:35:32.066Z,7.97
2022-12-11T12:38:14.428Z,7.38
2022-12-11T12:41:14.196Z,6.82
2022-12-11T12:44:06.949Z,8.85
2022-12-11T12:46:46.164Z,7.07
2022-12-11T12:49:17.350Z,7.82
2022-12-11T12:51:45.480Z,6.50
2022-12-11T12:54:18.520Z,7.78
2022-12-11T12:59:24.249Z,7.70
2022-12-11T13:01:57.275Z,8.00
2022-12-11T13:04:58.155Z,7.10
2022-12-11T13:07:32.602Z,7.40
2022-12-11T13:10:24.967Z,8.70
2022-12-11T13:12:52.122Z,7.72
2022-12-11T13:15:40.668Z,7.28
2022-12-11T13:18:32.273Z,8.52
2022-12-11T13:20:59.290Z,6.40
2022-12-11T13:23:28.740Z,6.20
2022-12-11T13:25:58.167Z,6.82
2022-12-11T13:28:24.547Z,7.57
2022-12-11T13:30:59.815Z,6.90
2022-12-11T13:33:27.992Z,8.23
2022-12-11T13:36:15.118Z,6.45
2022-12-11T13:38:52.086Z,8.05
2022-12-11T13:41:20.097Z,7.50
2022-12-11T13:43:49.411Z,8.23
2022-12-11T13:46:22.748Z,8.38
2022-12-11T13:48:55.312Z,8.27
2022-12-11T13:51:25.478Z,7.15
2022-12-11T13:54:17.339Z,7.93
2022-12-11T13:57:18.136Z,7.57
2022-12-11T13:59:59.414Z,7.63
2022-12-11T14:02:34.232Z,6.85
2022-12-11T14:05:06.204Z,8.77
2022-12-11T14:07:43.142Z,8.02
2022-12-11T14:10:27.488Z,8.00
2022-12-11T14:13:05.400Z,6.07
2022-12-11T14:15:34.790Z,6.82
2022-12-11T14:18:01.570Z,6.15
2022-12-11T14:20:30.920Z,8.55
2022-12-11T14:23:08.350Z,9.13
2022-12-11T14:25:34.793Z,8.82
2022-12-11T14:28:01.679Z,8.35
2022-12-11T14:30:31.920Z,7.32
2022-12-11T14:33:01.289Z,13.20
2022-12-11T14:35:42.033Z,9.57
2022-12-11T14:38:20.187Z,9.15
2022-12-11T14:40:51.673Z,9.98
2022-12-11T14:43:27.141Z,8.75
2022-12-11T14:46:01.656Z,8.05
2022-12-11T14:48:33.012Z,7.95
2022-12-11T14:51:03.624Z,7.07
2022-12-11T14:53:35.913Z,7.70
2022-12-11T14:56:05.938Z,7.57
2022-12-11T14:58:37.863Z,7.38
2022-12-11T15:01:04.289Z,8.32
2022-12-11T15:03:36.832Z,8.55
2022-12-11T15:06:22.607Z,6.60
2022-12-11T15:08:49.096Z,6.72
2022-12-11T15:11:17.884Z,6.70
2022-12-11T15:13:54.728Z,6.63
2022-12-11T15:16:23.025Z,7.72
2022-12-11T15:18:51.372Z,8.23
2022-12-11T15:21:18.917Z,6.75
2022-12-11T15:23:53.011Z,7.25
2022-12-11T15:26:21.466Z,5.93
2022-12-11T15:28:48.042Z,7.85
2022-12-11T15:31:27.272Z,7.68
2022-12-11T15:33:53.778Z,8.32
2022-12-11T15:36:26.747Z,7.85
2022-12-11T15:38:53.567Z,9.15
2022-12-11T15:41:26.318Z,7.45
2022-12-11T15:43:58.971Z,7.95
2022-12-11T15:46:26.399Z,7.45
2022-12-11T15:48:53.174Z,7.05
2022-12-11T15:51:19.645Z,7.88
2022-12-11T15:53:46.046Z,8.55
2022-12-11T15:56:14.895Z,7.28
2022-12-11T15:58:42.986Z,9.38
2022-12-11T16:01:09.551Z,8.30
2022-12-11T16:03:35.963Z,8.18
2022-12-11T16:06:02.698Z,7.80
2022-12-11T16:08:29.195Z,10.02
2022-12-11T16:10:55.804Z,7.28
2022-12-11T16:13:22.791Z,8.52
2022-12-11T16:15:51.152Z,6.70
2022-12-11T16:18:20.848Z,8.80
2022-12-11T16:20:47.766Z,7.72
2022-12-11T16:23:16.221Z,7.63
2022-12-11T16:25:44.134Z,8.95
2022-12-11T16:28:12.748Z,5.82
2022-12-11T16:30:39.554Z,9.45
2022-12-11T16:33:12.038Z,9.10
2022-12-11T16:35:39.611Z,6.82
2022-12-11T16:38:06.110Z,5.75
2022-12-11T16:40:32.570Z,6.55
2022-12-11T16:42:58.963Z,9.13
2022-12-11T16:45:26.665Z,7.70
2022-12-11T16:47:53.820Z,9.82
2022-12-11T16:50:20.810Z,8.07
2022-12-11T16:52:47.329Z,9.27
2022-12-11T16:55:14.681Z,8.57
2022-12-11T16:57:42.010Z,8.68
2022-12-11T17:00:12.475Z,6.07
2022-12-11T17:02:39.249Z,8.60
2022-12-11T17:05:06.184Z,9.02
2022-12-11T17:07:33.565Z,9.23
2022-12-11T17:10:01.772Z,7.20
2022-12-11T17:12:28.597Z,9.20
2022-12-11T17:14:56.718Z,8.50
2022-12-11T17:17:23.709Z,8.65
2022-12-11T17:19:50.387Z,6.75
2022-12-11T17:22:16.862Z,7.30
2022-12-11T17:24:43.311Z,9.18
2022-12-11T17:27:09.728Z,7.93
2022-12-11T17:29:36.232Z,8.70
2022-12-11T17:32:03.215Z,9.40
2022-12-11T17:34:36.093Z,5.35
2022-12-11T17:37:02.940Z,6.93
2022-12-11T17:39:29.593Z,7.40
2022-12-11T17:41:56.056Z,8.70
2022-12-11T17:44:22.498Z,8.18
2022-12-11T17:46:48.948Z,9.40
2022-12-11T17:49:15.684Z,8.18
2022-12-11T17:51:42.106Z,8.32
2022-12-11T17:54:09.625Z,9.32
2022-12-11T17:56:36.753Z,11.05
2022-12-11T17:59:03.958Z,9.68
2022-12-11T18:01:30.507Z,7.20
2022-12-11T18:04:01.401Z,9.27
2022-12-11T18:06:28.877Z,10.07
2022-12-11T18:08:55.808Z,10.95
2022-12-11T18:11:22.786Z,10.35
2022-12-11T18:13:50.656Z,10.88
2022-12-11T18:16:24.505Z,10.13
2022-12-11T18:18:51.999Z,7.70
2022-12-11T18:21:23.586Z,9.32
2022-12-11T18:23:50.510Z,8.55
2022-12-11T18:26:18.463Z,10.55
2022-12-11T18:28:45.746Z,10.75
2022-12-11T18:31:13.552Z,9.82
2022-12-11T18:33:42.306Z,10.95
2022-12-11T18:36:09.587Z,9.07
2022-12-11T18:38:36.051Z,10.15
2022-12-11T18:41:07.252Z,9.73
2022-12-11T18:43:34.132Z,8.27
2022-12-11T18:46:05.861Z,8.35
2022-12-11T18:48:32.377Z,8.38
2022-12-11T18:50:58.887Z,9.05
2022-12-11T18:53:25.375Z,7.10
2022-12-11T18:55:57.109Z,9.43
2022-12-11T18:58:26.557Z,11.68
2022-12-11T19:00:53.032Z,11.77
2022-12-11T19:03:19.496Z,7.95
2022-12-11T19:05:45.984Z,11.85
2022-12-11T19:08:13.832Z,12.52
2022-12-11T19:10:45.247Z,11.20
2022-12-11T19:13:12.191Z,9.90
2022-12-11T19:15:43.222Z,7.05
2022-12-11T19:18:11.051Z,9.20
2022-12-11T19:21:03.245Z,8.10
2022-12-11T19:23:25.198Z,10.23
2022-12-11T19:25:51.769Z,10.57
2022-12-11T19:28:18.330Z,9.20
2022-12-11T19:30:47.402Z,6.95
2022-12-11T19:33:15.380Z,8.95
2022-12-11T19:35:42.073Z,7.47
2022-12-11T19:38:08.601Z,7.53
2022-12-11T19:40:44.819Z,9.70
2022-12-11T19:43:11.260Z,9.18
2022-12-11T19:45:38.078Z,9.38
2022-12-11T19:48:04.744Z,8.27
2022-12-11T19:50:35.825Z,12.10
2022-12-11T19:53:02.368Z,10.50
2022-12-11T19:55:28.792Z,10.32
2022-12-11T19:57:55.628Z,8.45
2022-12-11T20:00:22.136Z,7.80
2022-12-11T20:02:49.067Z,10.52
2022-12-11T20:05:15.758Z,10.18
2022-12-11T20:07:44.552Z,9.35
2022-12-11T20:10:11.330Z,9.35
2022-12-11T20:12:37.775Z,7.78
2022-12-11T20:15:06.075Z,7.78
2022-12-11T20:17:33.269Z,10.32
2022-12-11T20:19:59.806Z,7.32
2022-12-11T20:22:26.253Z,10.25
2022-12-11T20:24:52.790Z,10.43
2022-12-11T20:27:19.229Z,9.55
2022-12-11T20:29:45.654Z,7.10
2022-12-11T20:32:12.278Z,7.55
2022-12-11T20:34:39.032Z,7.03
2022-12-11T20:37:05.549Z,9.85
2022-12-11T20:39:32.018Z,7.65
2022-12-11T20:41:58.490Z,8.85
2022-12-11T20:44:24.915Z,10.40
2022-12-11T20:46:51.552Z,9.43
2022-12-11T20:49:18.001Z,9.20
2022-12-11T20:51:44.408Z,8.98
2022-12-11T20:54:11.882Z,7.25
2022-12-11T20:56:38.470Z,7.70
2022-12-11T20:59:05.360Z,9.95
2022-12-11T21:01:35.002Z,8.80
2022-12-11T21:04:02.000Z,9.95
2022-12-11T21:06:34.472Z,7.25
2022-12-11T21:09:03.900Z,10.00
2022-12-11T21:11:30.374Z,8.98
2022-12-11T21:13:56.868Z,8.60
2022-12-11T21:16:24.429Z,7.32
2022-12-11T21:18:51.908Z,10.18
2022-12-11T21:21:19.604Z,9.05
2022-12-11T21:23:46.044Z,9.10
2022-12-11T21:26:13.063Z,8.15
2022-12-11T21:28:39.575Z,8.20
2022-12-11T21:31:08.969Z,8.82
2022-12-11T21:33:36.017Z,10.15
2022-12-11T21:36:03.869Z,7.78
2022-12-11T21:38:30.390Z,7.65
2022-12-11T21:40:57.247Z,8.30
2022-12-11T21:43:24.030Z,9.13
2022-12-11T21:46:06.518Z,9.77
2022-12-11T21:48:33.244Z,9.35
2022-12-11T21:51:11.910Z,9.35
2022-12-11T21:53:39.250Z,9.13
2022-12-11T21:56:11.894Z,8.05
2022-12-11T21:58:40.512Z,7.50
2022-12-11T22:01:13.130Z,9.52
2022-12-11T22:03:39.633Z,8.93
2022-12-11T22:06:06.239Z,9.07
2022-12-11T22:08:32.685Z,7.75
2022-12-11T22:11:00.947Z,8.23
2022-12-11T22:13:28.270Z,8.75
2022-12-11T22:15:55.101Z,9.82
2022-12-11T22:18:21.984Z,9.27
2022-12-11T22:20:48.419Z,8.70
2022-12-11T22:23:14.815Z,8.23
2022-12-11T22:25:41.290Z,8.70
2022-12-11T22:28:07.691Z,10.00
2022-12-11T22:30:34.169Z,9.48
2022-12-11T22:33:00.688Z,8.35
2022-12-11T22:35:27.582Z,9.15
2022-12-11T22:37:54.351Z,8.35
2022-12-11T22:40:20.864Z,9.98
2022-12-11T22:42:47.356Z,8.13
2022-12-11T22:45:14.426Z,6.75
2022-12-11T22:47:41.294Z,9.73
2022-12-11T22:50:08.461Z,11.13
2022-12-11T22:52:34.934Z,9.20
2022-12-11T22:55:01.478Z,9.98
2022-12-11T22:57:28.026Z,9.63
2022-12-11T22:59:54.538Z,10.75
2022-12-11T23:02:21.003Z,8.20
2022-12-11T23:04:48.050Z,8.27
2022-12-11T23:07:14.528Z,9.80
2022-12-11T23:09:40.997Z,9.68
2022-12-11T23:12:08.303Z,10.05
2022-12-11T23:14:34.761Z,7.53
2022-12-11T23:17:01.219Z,10.13
2022-12-11T23:19:27.668Z,9.50
2022-12-11T23:21:54.100Z,9.00
2022-12-11T23:24:22.395Z,7.78
2022-12-11T23:26:48.944Z,9.00
2022-12-11T23:29:15.382Z,8.07
2022-12-11T23:31:41.915Z,7.32
2022-12-11T23:34:08.344Z,8.50
2022-12-11T23:36:34.785Z,9.13
2022-12-11T23:39:01.209Z,8.93
2022-12-11T23:41:27.665Z,9.00
2022-12-11T23:43:54.111Z,8.88
2022-12-11T23:46:22.735Z,9.70
2022-12-11T23:48:49.689Z,10.02
2022-12-11T23:51:18.331Z,9.70
2022-12-11T23:53:45.607Z,11.18
2022-12-11T23:56:38.494Z,9.00
2022-12-11T23:59:05.017Z,8.02
